createdAt,value
2018-11-28T04:47:02.914Z,79.46
2018-11-28T04:48:02.906Z,79.25
2018-11-28T04:57:02.806Z,79.39
2018-11-28T04:58:02.792Z,80.12
2018-11-28T04:59:02.785Z,80.33
2018-11-28T05:00:02.820Z,80.23
2018-11-28T05:01:02.756Z,80.74
2018-11-28T05:02:02.746Z,80.95
2018-11-28T05:03:02.735Z,80.33
2018-11-28T05:04:02.726Z,80.74
2018-11-28T05:05:02.713Z,80.54
2018-11-28T05:06:02.702Z,80.54
2018-11-28T05:07:02.696Z,80.43
2018-11-28T05:08:02.684Z,81.27
2018-11-28T05:09:02.676Z,80.64
2018-11-28T05:10:02.681Z,80.64
2018-11-28T06:06:02.047Z,83.33
2018-11-28T06:11:01.986Z,83.26
2018-11-28T06:13:01.963Z,83.67
2018-11-28T06:27:01.809Z,82.53
2018-11-28T06:39:01.680Z,82.73
2018-11-28T06:40:01.666Z,82.59
2018-11-28T06:41:01.651Z,82.32
2018-11-28T06:42:01.639Z,81.90
2018-11-28T06:43:01.630Z,82.39
2018-11-28T06:44:01.624Z,82.11
2018-11-28T06:45:01.610Z,82.28
2018-11-28T06:46:01.598Z,81.59
2018-11-28T06:47:01.591Z,81.38
2018-11-28T06:48:01.580Z,81.55
2018-11-28T06:49:01.566Z,81.34
2018-11-28T06:50:01.572Z,81.28
2018-11-28T06:51:01.544Z,80.96
2018-11-28T06:52:01.534Z,80.75
2018-11-28T06:53:01.524Z,80.85
2018-11-28T06:54:01.508Z,81.06
2018-11-28T06:55:01.499Z,80.85
2018-11-28T06:56:01.490Z,80.65
2018-11-28T06:57:01.473Z,81.06
2018-11-28T06:58:01.465Z,80.75
2018-11-28T06:59:01.556Z,80.96
2018-11-28T07:00:01.445Z,80.85
2018-11-28T07:01:01.428Z,80.85
2018-11-28T07:02:01.417Z,80.75
2018-11-28T07:03:01.412Z,81.38
2018-11-28T07:04:01.400Z,80.75
2018-11-28T07:05:01.386Z,81.24
2018-11-28T07:06:01.377Z,80.75
2018-11-28T07:07:01.387Z,81.17
2018-11-28T07:08:01.388Z,80.85
2018-11-28T07:09:01.378Z,80.65
2018-11-28T07:10:01.336Z,80.65
2018-11-28T07:11:01.329Z,80.75
2018-11-28T07:12:01.331Z,80.54
2018-11-28T07:13:01.330Z,80.54
2018-11-28T07:14:01.336Z,80.20
2018-11-28T07:15:01.274Z,79.98
2018-11-28T07:16:01.274Z,80.09
2018-11-28T07:17:01.257Z,79.01
2018-11-28T07:18:01.242Z,79.11
2018-11-28T07:19:01.228Z,78.49
2018-11-28T07:20:01.218Z,77.61
2018-11-28T07:21:01.209Z,78.35
2018-11-28T07:22:01.197Z,77.93
2018-11-28T07:23:01.187Z,78.03
2018-11-28T07:24:01.175Z,77.93
2018-11-28T07:25:01.169Z,77.72
2018-11-28T07:26:01.160Z,78.03
2018-11-28T07:27:01.147Z,78.14
2018-11-28T07:28:01.128Z,77.72
2018-11-28T07:29:01.120Z,77.41
2018-11-28T07:30:01.106Z,76.99
2018-11-28T07:31:01.103Z,77.09
2018-11-28T07:32:01.088Z,77.51
2018-11-28T07:33:01.072Z,77.09
2018-11-28T07:34:01.064Z,77.41
2018-11-28T07:35:01.050Z,77.30
2018-11-28T07:36:01.045Z,77.20
2018-11-28T07:37:01.030Z,77.93
2018-11-28T07:38:01.026Z,77.61
2018-11-28T07:39:01.007Z,77.20
2018-11-28T07:40:00.995Z,76.64
2018-11-28T07:41:00.984Z,76.89
2018-11-28T07:42:00.974Z,77.09
2018-11-28T07:43:00.966Z,77.09
2018-11-28T07:44:00.954Z,76.89
2018-11-28T07:45:00.948Z,76.85
2018-11-28T07:46:00.927Z,76.78
2018-11-28T07:47:00.918Z,76.67
2018-11-28T07:48:00.917Z,76.85
2018-11-28T07:49:00.908Z,76.85
2018-11-28T07:50:00.889Z,75.81
2018-11-28T07:51:00.930Z,75.98
2018-11-28T07:52:00.867Z,75.25
2018-11-28T07:53:00.853Z,74.73
2018-11-28T07:54:00.845Z,75.04
2018-11-28T07:55:00.831Z,74.31
2018-11-28T07:56:00.823Z,74.28
2018-11-28T07:57:00.810Z,74.38
2018-11-28T07:58:00.801Z,73.73
2018-11-28T07:59:00.836Z,72.89
2018-11-28T08:00:00.774Z,72.47
2018-11-28T08:01:00.770Z,72.68
2018-11-28T08:02:00.754Z,71.85
2018-11-28T08:03:00.742Z,72.02
2018-11-28T08:04:00.746Z,71.92
2018-11-28T08:05:00.717Z,71.50
2018-11-28T08:06:00.714Z,71.19
2018-11-28T08:07:00.695Z,71.27
2018-11-28T08:08:00.689Z,71.02
2018-11-28T08:09:00.681Z,70.50
2018-11-28T08:10:00.663Z,69.78
2018-11-28T08:11:00.652Z,69.47
2018-11-28T08:12:00.654Z,69.12
2018-11-28T08:13:00.633Z,68.78
2018-11-28T08:14:00.624Z,68.12
2018-11-28T08:15:00.609Z,67.26
2018-11-28T08:16:00.602Z,66.01
2018-11-28T08:17:00.598Z,65.67
2018-11-28T08:18:00.579Z,64.44
2018-11-28T08:19:00.566Z,63.06
2018-11-28T08:20:00.554Z,62.00
2018-11-28T08:21:00.545Z,62.18
2018-11-28T08:22:00.535Z,61.48
2018-11-28T08:23:00.519Z,62.13
2018-11-28T08:24:00.509Z,62.68
2018-11-28T08:25:00.505Z,62.19
2018-11-28T08:26:00.496Z,63.02
2018-11-28T08:27:01.723Z,63.02
2018-11-28T08:28:00.519Z,63.33
2018-11-28T08:29:00.451Z,63.33
2018-11-28T08:30:00.441Z,62.65
2018-11-28T08:31:00.429Z,61.30
2018-11-28T08:32:00.420Z,60.76
2018-11-28T08:33:00.412Z,61.25
2018-11-28T08:34:00.397Z,60.29
2018-11-28T08:35:00.384Z,58.45
2018-11-28T08:36:00.375Z,56.72
2018-11-28T08:37:00.362Z,54.94
2018-11-28T08:38:00.351Z,53.63
2018-11-28T08:39:01.705Z,52.68
2018-11-28T08:40:00.329Z,52.16
2018-11-28T08:41:00.318Z,50.90
2018-11-28T08:42:00.309Z,51.09
2018-11-28T08:43:00.296Z,51.37
2018-11-28T08:44:00.286Z,50.24
2018-11-28T08:45:00.279Z,49.73
2018-11-28T08:46:00.267Z,48.76
2018-11-28T08:47:00.252Z,47.79
2018-11-28T08:48:00.240Z,47.94
2018-11-28T08:49:00.241Z,48.24
2018-11-28T08:50:00.217Z,48.27
2018-11-28T08:51:00.212Z,48.16
2018-11-28T08:52:00.197Z,48.04
2018-11-28T08:53:00.206Z,47.61
2018-11-28T08:54:00.174Z,47.27
2018-11-28T08:55:00.168Z,46.02
2018-11-28T08:56:00.151Z,44.75
2018-11-28T08:57:00.157Z,44.12
2018-11-28T08:58:00.128Z,44.09
2018-11-28T08:59:00.117Z,42.85
2018-11-28T09:00:00.107Z,42.62
2018-11-28T09:01:00.104Z,42.42
2018-11-28T09:02:00.087Z,42.65
2018-11-28T09:03:00.125Z,42.97
2018-11-28T09:04:00.061Z,42.77
2018-11-28T09:05:00.062Z,42.95
2018-11-28T09:06:00.039Z,42.44
2018-11-28T09:07:00.031Z,42.23
2018-11-28T09:08:00.026Z,42.56
2018-11-28T09:09:00.005Z,42.54
2018-11-28T09:09:59.994Z,42.66
2018-11-28T09:11:00.003Z,42.68
2018-11-28T09:11:59.974Z,42.66
2018-11-28T09:13:04.041Z,42.58
2018-11-28T09:14:04.396Z,42.01
2018-11-28T09:14:59.974Z,41.79
2018-11-28T09:15:59.930Z,41.68
2018-11-28T09:16:59.940Z,41.48
2018-11-28T09:17:59.952Z,40.11
2018-11-28T09:18:59.942Z,39.97
2018-11-28T09:19:59.889Z,39.67
2018-11-28T09:20:59.891Z,39.75
2018-11-28T09:21:59.862Z,39.43
2018-11-28T09:22:59.853Z,38.07
2018-11-28T09:23:59.841Z,36.52
2018-11-28T09:24:59.835Z,36.73
2018-11-28T09:25:59.818Z,38.41
2018-11-28T09:26:59.805Z,38.09
2018-11-28T09:27:59.794Z,37.64
2018-11-28T09:28:59.786Z,37.22
2018-11-28T09:29:59.770Z,37.05
2018-11-28T09:30:59.760Z,38.02
2018-11-28T09:31:59.748Z,38.54
2018-11-28T09:32:59.735Z,38.31
2018-11-28T09:33:59.725Z,37.25
2018-11-28T09:34:59.714Z,36.71
2018-11-28T09:35:59.714Z,37.30
2018-11-28T09:36:59.691Z,35.85
2018-11-28T09:37:59.678Z,35.66
2018-11-28T09:38:59.665Z,35.79
2018-11-28T09:39:59.654Z,35.96
2018-11-28T09:40:59.643Z,35.57
2018-11-28T09:41:59.634Z,36.22
2018-11-28T09:42:59.622Z,36.76
2018-11-28T09:43:59.610Z,37.59
2018-11-28T09:44:59.596Z,38.18
2018-11-28T09:45:59.590Z,36.62
2018-11-28T09:46:59.576Z,35.88
2018-11-28T09:47:59.565Z,35.54
2018-11-28T09:48:59.552Z,36.01
2018-11-28T09:49:59.540Z,35.13
2018-11-28T09:50:59.539Z,35.39
2018-11-28T09:51:59.518Z,36.52
2018-11-28T09:52:59.507Z,37.13
2018-11-28T09:53:59.496Z,36.52
2018-11-28T09:54:59.484Z,36.42
2018-11-28T09:55:59.473Z,35.69
2018-11-28T09:56:59.461Z,35.78
2018-11-28T09:57:59.451Z,34.96
2018-11-28T09:58:59.446Z,35.47
2018-11-28T09:59:59.434Z,35.39
2018-11-28T10:00:59.418Z,35.62
2018-11-28T10:01:59.410Z,35.91
2018-11-28T10:02:59.394Z,35.49
2018-11-28T10:03:59.388Z,33.86
2018-11-28T10:05:02.671Z,35.45
2018-11-28T10:05:59.364Z,35.59
2018-11-28T10:06:59.350Z,35.77
2018-11-28T10:07:59.339Z,35.86
2018-11-28T10:08:59.329Z,35.64
2018-11-28T10:09:59.318Z,35.10
2018-11-28T10:10:59.307Z,34.17
2018-11-28T10:11:59.297Z,34.30
2018-11-28T10:12:59.284Z,33.98
2018-11-28T10:13:59.275Z,33.76
2018-11-28T10:14:59.263Z,33.25
2018-11-28T10:15:59.253Z,33.79
2018-11-28T10:16:59.247Z,34.74
2018-11-28T10:17:59.231Z,34.84
2018-11-28T10:18:59.217Z,34.22
2018-11-28T10:19:59.213Z,35.25
2018-11-28T10:20:59.232Z,35.25
2018-11-28T10:21:59.184Z,33.67
2018-11-28T10:22:59.177Z,33.05
2018-11-28T10:23:59.162Z,32.62
2018-11-28T10:24:59.153Z,32.84
2018-11-28T10:25:59.145Z,32.96
2018-11-28T10:26:59.130Z,32.71
2018-11-28T10:27:59.158Z,31.90
2018-11-28T10:28:59.106Z,32.96
2018-11-28T10:29:59.102Z,32.92
2018-11-28T10:30:59.090Z,31.79
2018-11-28T10:31:59.080Z,31.16
2018-11-28T10:32:59.065Z,30.93
2018-11-28T10:33:59.052Z,31.16
2018-11-28T10:34:59.040Z,31.37
2018-11-28T10:35:59.032Z,31.73
2018-11-28T10:36:59.025Z,32.89
2018-11-28T10:37:59.012Z,33.18
2018-11-28T10:38:58.996Z,33.28
2018-11-28T10:39:58.985Z,33.37
2018-11-28T10:40:58.973Z,32.65
2018-11-28T10:41:58.966Z,33.18
2018-11-28T10:42:58.950Z,33.18
2018-11-28T10:43:58.948Z,32.76
2018-11-28T10:44:58.938Z,33.13
2018-11-28T10:45:58.918Z,32.64
2018-11-28T10:46:58.906Z,32.19
2018-11-28T10:47:58.896Z,30.75
2018-11-28T10:48:58.885Z,30.85
2018-11-28T10:49:58.883Z,31.04
2018-11-28T10:50:58.861Z,30.31
2018-11-28T10:52:00.261Z,30.74
2018-11-28T10:52:58.839Z,31.48
2018-11-28T10:53:58.827Z,30.98
2018-11-28T10:54:58.816Z,31.07
2018-11-28T10:55:58.806Z,30.98
2018-11-28T10:56:58.794Z,31.52
2018-11-28T10:57:58.782Z,31.65
2018-11-28T10:58:58.775Z,31.74
2018-11-28T10:59:58.767Z,31.40
2018-11-28T11:00:58.756Z,30.98
2018-11-28T11:01:58.744Z,30.46
2018-11-28T11:02:58.732Z,30.26
2018-11-28T11:03:58.717Z,31.61
2018-11-28T11:04:58.763Z,30.46
2018-11-28T11:05:58.696Z,30.29
2018-11-28T11:06:58.689Z,30.78
2018-11-28T11:07:58.695Z,30.56
2018-11-28T11:08:58.660Z,31.09
2018-11-28T11:09:58.654Z,31.93
2018-11-28T11:10:58.636Z,31.76
2018-11-28T11:11:58.624Z,31.99
2018-11-28T11:12:58.617Z,33.42
2018-11-28T11:13:58.601Z,33.42
2018-11-28T11:14:58.591Z,33.11
2018-11-28T11:15:58.625Z,33.42
2018-11-28T11:16:58.570Z,33.20
2018-11-28T11:18:02.117Z,33.31
2018-11-28T11:18:58.562Z,32.89
2018-11-28T11:19:58.540Z,31.73
2018-11-28T11:20:58.525Z,30.87
2018-11-28T11:21:58.512Z,30.52
2018-11-28T11:22:58.501Z,29.19
2018-11-28T11:23:58.488Z,29.90
2018-11-28T11:24:58.477Z,29.99
2018-11-28T11:25:58.469Z,29.76
2018-11-28T11:26:58.457Z,29.18
2018-11-28T11:27:58.443Z,29.52
2018-11-28T11:28:58.432Z,29.73
2018-11-28T11:29:58.457Z,30.96
2018-11-28T11:30:58.519Z,30.24
2018-11-28T11:31:58.399Z,31.20
2018-11-28T11:32:58.388Z,31.50
2018-11-28T11:33:58.378Z,30.67
2018-11-28T11:34:58.369Z,30.78
2018-11-28T11:35:58.352Z,31.42
2018-11-28T11:36:58.341Z,31.76
2018-11-28T11:37:58.333Z,33.40
2018-11-28T11:38:58.321Z,32.37
2018-11-28T11:39:58.310Z,32.77
2018-11-28T11:40:58.302Z,31.73
2018-11-28T11:41:58.290Z,31.00
2018-11-28T11:42:58.276Z,31.51
2018-11-28T11:43:58.263Z,31.54
2018-11-28T11:44:58.251Z,32.95
2018-11-28T11:45:58.240Z,31.96
2018-11-28T11:46:58.229Z,33.24
2018-11-28T11:47:58.219Z,33.89
2018-11-28T11:48:58.210Z,35.42
2018-11-28T11:49:58.200Z,33.78
2018-11-28T11:50:58.195Z,34.61
2018-11-28T11:51:58.180Z,34.38
2018-11-28T11:52:58.160Z,34.19
2018-11-28T11:53:58.149Z,35.66
2018-11-28T11:54:58.138Z,35.54
2018-11-28T11:55:58.132Z,34.48
2018-11-28T11:56:58.117Z,33.77
2018-11-28T11:57:58.105Z,34.09
2018-11-28T11:58:58.095Z,35.33
2018-11-28T11:59:58.087Z,35.01
2018-11-28T12:00:58.072Z,33.99
2018-11-28T12:01:58.061Z,34.50
2018-11-28T12:02:58.054Z,34.39
2018-11-28T12:03:58.085Z,34.58
2018-11-28T12:04:58.026Z,34.71
2018-11-28T12:05:58.016Z,34.09
2018-11-28T12:06:58.004Z,34.61
2018-11-28T12:07:57.998Z,34.30
2018-11-28T12:08:57.988Z,34.48
2018-11-28T12:09:57.973Z,32.85
2018-11-28T12:10:57.962Z,32.94
2018-11-28T12:11:57.949Z,34.61
2018-11-28T12:12:57.938Z,34.71
2018-11-28T12:13:57.929Z,33.87
2018-11-28T12:14:57.922Z,33.68
2018-11-28T12:15:57.954Z,35.01
2018-11-28T12:16:57.899Z,34.11
2018-11-28T12:17:57.883Z,35.15
2018-11-28T12:18:57.872Z,35.77
2018-11-28T12:19:57.866Z,35.89
2018-11-28T12:20:57.855Z,35.88
2018-11-28T12:21:57.839Z,36.05
2018-11-28T12:22:57.828Z,35.01
2018-11-28T12:23:57.821Z,34.79
2018-11-28T12:24:57.809Z,33.77
2018-11-28T12:25:57.793Z,33.89
2018-11-28T12:26:57.782Z,33.97
2018-11-28T12:27:57.772Z,33.04
2018-11-28T12:28:57.760Z,33.01
2018-11-28T12:29:57.753Z,32.73
2018-11-28T12:30:57.795Z,34.09
2018-11-28T12:31:57.727Z,34.80
2018-11-28T12:32:57.716Z,33.75
2018-11-28T12:33:57.708Z,33.97
2018-11-28T12:34:57.697Z,33.75
2018-11-28T12:35:57.684Z,32.92
2018-11-28T12:36:57.679Z,33.11
2018-11-28T12:37:57.662Z,33.40
2018-11-28T12:38:57.652Z,32.06
2018-11-28T12:39:57.644Z,32.80
2018-11-28T12:40:57.638Z,32.69
2018-11-28T12:41:57.620Z,32.73
2018-11-28T12:42:57.613Z,33.78
2018-11-28T12:43:57.594Z,35.36
2018-11-28T12:44:57.585Z,35.79
2018-11-28T12:45:57.577Z,35.79
2018-11-28T12:46:57.562Z,35.60
2018-11-28T12:47:57.558Z,35.89
2018-11-28T12:48:57.547Z,35.99
2018-11-28T12:49:57.529Z,35.64
2018-11-28T12:50:57.529Z,34.71
2018-11-28T12:51:57.532Z,34.52
2018-11-28T12:52:57.535Z,34.11
2018-11-28T12:53:57.540Z,33.99
2018-11-28T12:54:57.477Z,34.96
2018-11-28T12:55:57.482Z,35.45
2018-11-28T12:56:57.490Z,35.79
2018-11-28T12:57:57.559Z,36.01
2018-11-28T12:58:57.432Z,35.69
2018-11-28T12:59:57.424Z,35.86
2018-11-28T13:00:57.408Z,34.30
2018-11-28T13:01:57.399Z,33.87
2018-11-28T13:02:57.390Z,33.77
2018-11-28T13:03:57.380Z,33.86
2018-11-28T13:04:59.837Z,34.30
2018-11-28T13:05:57.350Z,34.38
2018-11-28T13:06:57.339Z,35.11
2018-11-28T13:07:57.329Z,35.02
2018-11-28T13:08:57.317Z,34.93
2018-11-28T13:09:57.307Z,34.91
2018-11-28T13:10:57.295Z,34.19
2018-11-28T13:12:00.025Z,35.64
2018-11-28T13:12:57.354Z,35.89
2018-11-28T13:13:57.261Z,35.69
2018-11-28T13:14:57.256Z,36.12
2018-11-28T13:15:57.239Z,36.76
2018-11-28T13:16:57.232Z,37.38
2018-11-28T13:17:57.221Z,36.95
2018-11-28T13:18:57.206Z,36.87
2018-11-28T13:19:59.069Z,37.19
2018-11-28T13:20:57.185Z,37.40
2018-11-28T13:21:57.170Z,36.87
2018-11-28T13:22:57.164Z,37.19
2018-11-28T13:23:57.147Z,37.19
2018-11-28T13:24:57.141Z,37.40
2018-11-28T13:25:57.125Z,37.00
2018-11-28T13:26:57.112Z,37.64
2018-11-28T13:27:57.100Z,38.37
2018-11-28T13:28:57.095Z,38.28
2018-11-28T13:29:57.090Z,39.42
2018-11-28T13:30:57.068Z,39.21
2018-11-28T13:31:57.058Z,39.53
2018-11-28T13:32:57.045Z,39.12
2018-11-28T13:33:57.035Z,39.53
2018-11-28T13:34:57.029Z,40.27
2018-11-28T13:35:57.010Z,39.84
2018-11-28T13:36:56.999Z,40.38
2018-11-28T13:37:56.990Z,40.07
2018-11-28T13:38:56.979Z,40.36
2018-11-28T13:39:56.968Z,39.95
2018-11-28T13:40:56.954Z,40.15
2018-11-28T13:41:56.941Z,39.76
2018-11-28T13:42:56.933Z,39.78
2018-11-28T13:43:56.918Z,40.29
2018-11-28T13:44:56.907Z,41.11
2018-11-28T13:45:56.900Z,41.01
2018-11-28T13:46:56.885Z,40.31
2018-11-28T13:47:56.876Z,40.62
2018-11-28T13:48:56.870Z,41.03
2018-11-28T13:49:56.855Z,41.24
2018-11-28T13:50:56.842Z,41.97
2018-11-28T13:51:56.837Z,42.29
2018-11-28T13:52:56.819Z,41.77
2018-11-28T13:53:56.817Z,42.20
2018-11-28T13:57:45.741Z,42.84
2018-11-28T13:58:45.731Z,42.63
2018-11-28T13:59:45.729Z,43.15
2018-11-28T14:00:45.711Z,44.09
2018-11-28T14:01:45.698Z,44.30
2018-11-28T14:02:45.684Z,45.05
2018-11-28T14:03:45.675Z,44.96
2018-11-28T14:04:45.664Z,45.37
2018-11-28T14:05:45.653Z,45.37
2018-11-28T14:06:45.640Z,45.78
2018-11-28T14:07:45.630Z,46.61
2018-11-28T14:08:45.618Z,45.37
2018-11-28T14:09:45.609Z,44.86
2018-11-28T14:10:45.597Z,44.63
2018-11-28T14:11:45.595Z,45.25
2018-11-28T14:12:45.580Z,44.73
2018-11-28T14:13:45.574Z,44.96
2018-11-28T14:14:45.559Z,44.86
2018-11-28T14:15:45.571Z,44.86
2018-11-28T14:16:45.539Z,46.02
2018-11-28T14:17:45.526Z,46.03
2018-11-28T14:18:45.512Z,46.57
2018-11-28T14:19:45.505Z,46.36
2018-11-28T14:20:45.490Z,47.09
2018-11-28T14:21:45.479Z,47.01
2018-11-28T14:22:45.468Z,47.83
2018-11-28T14:23:45.456Z,48.04
2018-11-28T14:24:45.453Z,47.73
2018-11-28T14:25:45.440Z,48.35
2018-11-28T14:26:45.423Z,47.94
2018-11-28T14:27:45.416Z,48.25
2018-11-28T14:28:45.401Z,48.06
2018-11-28T14:29:45.394Z,47.96
2018-11-28T14:30:45.383Z,48.27
2018-11-28T14:31:45.372Z,48.48
2018-11-28T14:32:45.356Z,48.79
2018-11-28T14:33:45.347Z,49.22
2018-11-28T14:34:45.334Z,48.79
2018-11-28T14:35:45.324Z,48.71
2018-11-28T14:36:45.311Z,48.91
2018-11-28T14:37:45.300Z,49.04
2018-11-28T14:38:45.291Z,49.76
2018-11-28T14:39:45.282Z,49.53
2018-11-28T14:40:45.266Z,49.53
2018-11-28T14:41:45.260Z,49.63
2018-11-28T14:42:45.250Z,49.87
2018-11-28T14:43:45.259Z,50.07
2018-11-28T14:44:45.221Z,50.28
2018-11-28T14:45:45.209Z,50.49
2018-11-28T14:46:45.239Z,50.18
2018-11-28T14:47:45.203Z,50.49
2018-11-28T14:48:45.176Z,49.97
2018-11-28T14:49:45.164Z,50.18
2018-11-28T14:50:45.159Z,50.28
2018-11-28T14:51:45.142Z,50.07
2018-11-28T14:52:45.132Z,50.51
2018-11-28T14:53:48.048Z,50.49
2018-11-28T14:54:45.108Z,50.72
2018-11-28T14:55:45.098Z,51.13
2018-11-28T14:56:45.087Z,51.34
2018-11-28T14:57:45.075Z,51.44
2018-11-28T14:58:45.064Z,50.92
2018-11-28T14:59:45.057Z,51.75
2018-11-28T15:00:45.042Z,51.44
2018-11-28T15:01:45.031Z,51.34
2018-11-28T15:02:45.019Z,51.78
2018-11-28T15:03:45.008Z,51.98
2018-11-28T15:04:45.001Z,51.98
2018-11-28T15:05:44.985Z,51.67
2018-11-28T15:06:44.982Z,51.67
2018-11-28T15:07:44.969Z,51.91
2018-11-28T15:08:44.952Z,52.32
2018-11-28T15:09:44.942Z,52.32
2018-11-28T15:10:44.930Z,52.55
2018-11-28T15:11:44.918Z,52.76
2018-11-28T15:12:44.913Z,52.97
2018-11-28T15:13:44.897Z,52.66
2018-11-28T15:14:44.883Z,52.76
2018-11-28T15:15:44.874Z,52.97
2018-11-28T15:16:44.916Z,52.97
2018-11-28T15:17:44.856Z,52.86
2018-11-28T15:18:44.848Z,52.86
2018-11-28T15:19:44.827Z,53.07
2018-11-28T15:20:44.817Z,53.38
2018-11-28T15:21:44.804Z,52.86
2018-11-28T15:22:44.799Z,52.76
2018-11-28T15:23:44.790Z,53.27
2018-11-28T15:24:44.777Z,53.19
2018-11-28T15:25:44.761Z,53.19
2018-11-28T15:26:44.752Z,53.10
2018-11-28T15:27:44.743Z,53.30
2018-11-28T15:28:44.727Z,53.33
2018-11-28T15:29:44.722Z,53.33
2018-11-28T15:30:44.720Z,53.30
2018-11-28T15:31:44.705Z,53.19
2018-11-28T15:32:44.685Z,52.99
2018-11-28T15:33:44.678Z,53.10
2018-11-28T15:34:44.668Z,53.30
2018-11-28T15:35:44.651Z,53.19
2018-11-28T15:36:44.645Z,53.30
2018-11-28T15:37:44.629Z,53.10
2018-11-28T15:38:44.637Z,53.19
2018-11-28T15:39:44.608Z,53.10
2018-11-28T15:40:44.600Z,52.89
2018-11-28T15:41:44.587Z,53.33
2018-11-28T15:42:44.572Z,53.12
2018-11-28T15:43:44.571Z,53.02
2018-11-28T20:38:41.302Z,71.25
2018-11-28T20:50:41.167Z,71.46
2018-11-28T20:56:41.103Z,71.46
2018-11-28T20:58:41.079Z,71.25
2018-11-28T21:02:41.039Z,71.70
2018-11-28T21:04:41.014Z,71.28
2018-11-28T21:06:40.994Z,71.56
2018-11-28T21:16:40.886Z,72.74
2018-11-28T21:17:40.869Z,72.64
2018-11-28T21:20:40.842Z,72.54
2018-11-28T21:23:40.805Z,72.54
2018-11-28T21:24:40.793Z,72.95
2018-11-28T21:25:40.779Z,73.06
2018-11-28T21:28:40.746Z,72.64
2018-11-28T21:30:40.724Z,72.74
2018-11-28T21:32:40.702Z,72.54
2018-11-28T21:36:40.660Z,72.85
2018-11-28T21:37:40.644Z,72.54
2018-11-28T21:38:40.642Z,72.95
2018-11-28T21:39:40.630Z,72.95
2018-11-28T21:43:40.580Z,73.06
2018-11-28T21:45:40.565Z,72.22
2018-11-28T22:00:40.393Z,71.28
